AAL1441 KRDU-KDCA
Flight info
| Callsign | AAL1441 |
|---|---|
| Flight time | 0h 40m |
| Altitude | 23000 |
| Route | BEXGO5 BOUSY WAVES CAPSS4 |
| Aircraft | A319/M-VGDW/C |
Departure
| Time | 2026-05-06 00:34 |
|---|---|
| Airport | Raleigh-Durham International Airport (KRDU) |
Arrival
| Time | 2026-05-06 01:14 |
|---|---|
| Airport | Ronald Reagan Washington National Airport (KDCA) |
| Time | Latitude | Longitude | Altitude | Speed | Heading |
|---|---|---|---|---|---|
| 2026-05-06 00:19 | 35.87841 | -78.79302 | 392 ft | 0 kts | 138° |
| 2026-05-06 00:27 | 35.87842 | -78.79303 | 392 ft | 4 kts | 137° |
| 2026-05-06 00:27 | 35.87863 | -78.79327 | 392 ft | 4 kts | 137° |
| 2026-05-06 00:27 | 35.87882 | -78.79354 | 392 ft | 4 kts | 98° |
| 2026-05-06 00:28 | 35.87889 | -78.79355 | 392 ft | 4 kts | 52° |
| 2026-05-06 00:28 | 35.87897 | -78.79345 | 392 ft | 0 kts | 48° |
| 2026-05-06 00:29 | 35.87898 | -78.79343 | 392 ft | 1 kts | 48° |
| 2026-05-06 00:30 | 35.87910 | -78.79326 | 392 ft | 4 kts | 48° |
| 2026-05-06 00:30 | 35.87955 | -78.79271 | 392 ft | 17 kts | 43° |
| 2026-05-06 00:30 | 35.88072 | -78.79129 | 392 ft | 30 kts | 45° |
| 2026-05-06 00:30 | 35.88202 | -78.78987 | 391 ft | 17 kts | 1° |
| 2026-05-06 00:31 | 35.88329 | -78.78914 | 391 ft | 27 kts | 45° |
| 2026-05-06 00:31 | 35.88482 | -78.78723 | 392 ft | 35 kts | 45° |
| 2026-05-06 00:31 | 35.88664 | -78.78500 | 392 ft | 38 kts | 45° |
| 2026-05-06 00:31 | 35.88853 | -78.78267 | 392 ft | 39 kts | 45° |
| 2026-05-06 00:32 | 35.89046 | -78.78027 | 391 ft | 40 kts | 45° |
| 2026-05-06 00:32 | 35.89239 | -78.77788 | 392 ft | 32 kts | 45° |
| 2026-05-06 00:32 | 35.89314 | -78.77762 | 392 ft | 8 kts | 342° |
| 2026-05-06 00:32 | 35.89362 | -78.77812 | 393 ft | 10 kts | 287° |
| 2026-05-06 00:33 | 35.89318 | -78.77887 | 392 ft | 14 kts | 225° |
| 2026-05-06 00:33 | 35.89091 | -78.78166 | 391 ft | 84 kts | 225° |
| 2026-05-06 00:33 | 35.88529 | -78.78856 | 396 ft | 144 kts | 224° |
| 2026-05-06 00:33 | 35.87774 | -78.79815 | 787 ft | 165 kts | 223° |
| 2026-05-06 00:34 | 35.86946 | -78.80882 | 1289 ft | 179 kts | 222° |
| 2026-05-06 00:34 | 35.86082 | -78.81999 | 2044 ft | 178 kts | 222° |
| 2026-05-06 00:34 | 35.85237 | -78.83104 | 2888 ft | 176 kts | 222° |
| 2026-05-06 00:34 | 35.84395 | -78.84209 | 3637 ft | 177 kts | 223° |
| 2026-05-06 00:35 | 35.83551 | -78.85316 | 4353 ft | 179 kts | 223° |
| 2026-05-06 00:35 | 35.82440 | -78.86156 | 4718 ft | 201 kts | 199° |
| 2026-05-06 00:35 | 35.80981 | -78.86343 | 5135 ft | 227 kts | 173° |
| 2026-05-06 00:35 | 35.79455 | -78.85455 | 5617 ft | 262 kts | 144° |
| 2026-05-06 00:36 | 35.78363 | -78.83554 | 6412 ft | 285 kts | 117° |
| 2026-05-06 00:36 | 35.77890 | -78.81143 | 7282 ft | 299 kts | 94° |
| 2026-05-06 00:36 | 35.78264 | -78.78593 | 8221 ft | 308 kts | 69° |
| 2026-05-06 00:36 | 35.79427 | -78.76371 | 9171 ft | 313 kts | 44° |
| 2026-05-06 00:37 | 35.81187 | -78.74808 | 10092 ft | 314 kts | 28° |
| 2026-05-06 00:37 | 35.83150 | -78.73419 | 10511 ft | 337 kts | 27° |
| 2026-05-06 00:37 | 35.85259 | -78.71939 | 10858 ft | 359 kts | 27° |
| 2026-05-06 00:37 | 35.87462 | -78.70385 | 11537 ft | 368 kts | 27° |
| 2026-05-06 00:38 | 35.89694 | -78.68800 | 12363 ft | 373 kts | 27° |
| 2026-05-06 00:38 | 35.91953 | -78.67185 | 13184 ft | 377 kts | 27° |
| 2026-05-06 00:38 | 35.94230 | -78.65555 | 13984 ft | 381 kts | 27° |
| 2026-05-06 00:38 | 35.96535 | -78.63903 | 14719 ft | 384 kts | 27° |
| 2026-05-06 00:39 | 35.98859 | -78.62234 | 15427 ft | 389 kts | 27° |
| 2026-05-06 00:39 | 36.01209 | -78.60544 | 16153 ft | 392 kts | 27° |
| 2026-05-06 00:39 | 36.03574 | -78.58842 | 16875 ft | 396 kts | 27° |
| 2026-05-06 00:39 | 36.05971 | -78.57120 | 17593 ft | 400 kts | 27° |
| 2026-05-06 00:40 | 36.08381 | -78.55388 | 18315 ft | 403 kts | 27° |
| 2026-05-06 00:40 | 36.10820 | -78.53633 | 18942 ft | 406 kts | 27° |
| 2026-05-06 00:40 | 36.13272 | -78.51865 | 19589 ft | 409 kts | 27° |
| 2026-05-06 00:40 | 36.15738 | -78.50087 | 20227 ft | 412 kts | 26° |
| 2026-05-06 00:41 | 36.18221 | -78.48298 | 20726 ft | 418 kts | 26° |
| 2026-05-06 00:41 | 36.20787 | -78.46453 | 20852 ft | 434 kts | 26° |
| 2026-05-06 00:41 | 36.23441 | -78.44545 | 21011 ft | 447 kts | 26° |
| 2026-05-06 00:41 | 36.26150 | -78.42592 | 21373 ft | 453 kts | 26° |
| 2026-05-06 00:42 | 36.28884 | -78.40614 | 21820 ft | 456 kts | 26° |
| 2026-05-06 00:42 | 36.31627 | -78.38622 | 22298 ft | 459 kts | 26° |
| 2026-05-06 00:42 | 36.34392 | -78.36612 | 22773 ft | 461 kts | 26° |
| 2026-05-06 00:42 | 36.37158 | -78.34602 | 22986 ft | 462 kts | 26° |
| 2026-05-06 00:43 | 36.39949 | -78.32578 | 23031 ft | 468 kts | 26° |
| 2026-05-06 00:43 | 36.42773 | -78.30533 | 23031 ft | 473 kts | 26° |
| 2026-05-06 00:43 | 36.45623 | -78.28469 | 23025 ft | 474 kts | 26° |
| 2026-05-06 00:43 | 36.48472 | -78.26399 | 23020 ft | 475 kts | 26° |
| 2026-05-06 00:44 | 36.51286 | -78.24345 | 23023 ft | 475 kts | 26° |
| 2026-05-06 00:44 | 36.54140 | -78.22260 | 23023 ft | 475 kts | 26° |
| 2026-05-06 00:44 | 36.56988 | -78.20176 | 23052 ft | 475 kts | 26° |
| 2026-05-06 00:44 | 36.59839 | -78.18089 | 23059 ft | 475 kts | 26° |
| 2026-05-06 00:45 | 36.62691 | -78.16003 | 23061 ft | 475 kts | 26° |
| 2026-05-06 00:45 | 36.65543 | -78.13921 | 23096 ft | 476 kts | 26° |
| 2026-05-06 00:45 | 36.68403 | -78.11831 | 23087 ft | 476 kts | 26° |
| 2026-05-06 00:45 | 36.71255 | -78.09746 | 23077 ft | 476 kts | 26° |
| 2026-05-06 00:46 | 36.74115 | -78.07655 | 23072 ft | 476 kts | 26° |
| 2026-05-06 00:46 | 36.76972 | -78.05560 | 23073 ft | 477 kts | 26° |
| 2026-05-06 00:46 | 36.79830 | -78.03463 | 23065 ft | 477 kts | 26° |
| 2026-05-06 00:46 | 36.82689 | -78.01361 | 23062 ft | 477 kts | 26° |
| 2026-05-06 00:47 | 36.85610 | -77.99433 | 23057 ft | 473 kts | 20° |
| 2026-05-06 00:47 | 36.88596 | -77.97711 | 23010 ft | 473 kts | 20° |
| 2026-05-06 00:47 | 36.91594 | -77.96009 | 23002 ft | 473 kts | 19° |
| 2026-05-06 00:47 | 36.94603 | -77.94322 | 22991 ft | 474 kts | 19° |
| 2026-05-06 00:48 | 36.97616 | -77.92644 | 22983 ft | 474 kts | 19° |
| 2026-05-06 00:48 | 37.00629 | -77.90964 | 22980 ft | 475 kts | 20° |
| 2026-05-06 00:48 | 37.03647 | -77.89274 | 22981 ft | 475 kts | 20° |
| 2026-05-06 00:48 | 37.06659 | -77.87576 | 22982 ft | 475 kts | 20° |
| 2026-05-06 00:49 | 37.09675 | -77.85868 | 23006 ft | 476 kts | 20° |
| 2026-05-06 00:49 | 37.12691 | -77.84155 | 22998 ft | 476 kts | 20° |
| 2026-05-06 00:49 | 37.15673 | -77.82458 | 22990 ft | 477 kts | 20° |
| 2026-05-06 00:49 | 37.18693 | -77.80739 | 23003 ft | 477 kts | 20° |
| 2026-05-06 00:50 | 37.21715 | -77.79022 | 22999 ft | 477 kts | 20° |
| 2026-05-06 00:50 | 37.24740 | -77.77302 | 22999 ft | 477 kts | 20° |
| 2026-05-06 00:50 | 37.27771 | -77.75576 | 22987 ft | 477 kts | 20° |
| 2026-05-06 00:50 | 37.30793 | -77.73851 | 22987 ft | 478 kts | 20° |
| 2026-05-06 00:51 | 37.33825 | -77.72121 | 22996 ft | 478 kts | 20° |
| 2026-05-06 00:51 | 37.36850 | -77.70393 | 22990 ft | 478 kts | 20° |
| 2026-05-06 00:51 | 37.39883 | -77.68665 | 22987 ft | 478 kts | 20° |
| 2026-05-06 00:51 | 37.42911 | -77.66933 | 22984 ft | 479 kts | 20° |
| 2026-05-06 00:52 | 37.45906 | -77.65215 | 22983 ft | 463 kts | 20° |
| 2026-05-06 00:52 | 37.48782 | -77.63562 | 22743 ft | 447 kts | 20° |
| 2026-05-06 00:52 | 37.51573 | -77.61952 | 22480 ft | 438 kts | 20° |
| 2026-05-06 00:52 | 37.54331 | -77.60367 | 22236 ft | 434 kts | 20° |
| 2026-05-06 00:53 | 37.57083 | -77.58785 | 21974 ft | 434 kts | 20° |
| 2026-05-06 00:53 | 37.59842 | -77.57210 | 21713 ft | 436 kts | 20° |
| 2026-05-06 00:53 | 37.62606 | -77.55638 | 21451 ft | 435 kts | 20° |
| 2026-05-06 00:53 | 37.65362 | -77.54058 | 21198 ft | 434 kts | 21° |
| 2026-05-06 00:54 | 37.68104 | -77.52477 | 20947 ft | 433 kts | 21° |
| 2026-05-06 00:54 | 37.70843 | -77.50901 | 20698 ft | 432 kts | 21° |
| 2026-05-06 00:54 | 37.73573 | -77.49328 | 20451 ft | 430 kts | 21° |
| 2026-05-06 00:54 | 37.76290 | -77.47755 | 20207 ft | 429 kts | 21° |
| 2026-05-06 00:55 | 37.78999 | -77.46182 | 19965 ft | 428 kts | 21° |
| 2026-05-06 00:55 | 37.81694 | -77.44611 | 19721 ft | 426 kts | 21° |
| 2026-05-06 00:55 | 37.84386 | -77.43051 | 19481 ft | 425 kts | 21° |
| 2026-05-06 00:55 | 37.87070 | -77.41495 | 19243 ft | 423 kts | 21° |
| 2026-05-06 00:56 | 37.89708 | -77.39967 | 19012 ft | 422 kts | 21° |
| 2026-05-06 00:56 | 37.92369 | -77.38426 | 18755 ft | 418 kts | 21° |
| 2026-05-06 00:56 | 37.95009 | -77.36894 | 18265 ft | 416 kts | 22° |
| 2026-05-06 00:56 | 37.97637 | -77.35374 | 17671 ft | 415 kts | 22° |
| 2026-05-06 00:57 | 38.00264 | -77.33855 | 17111 ft | 413 kts | 22° |
| 2026-05-06 00:57 | 38.02872 | -77.32338 | 16557 ft | 411 kts | 22° |
| 2026-05-06 00:57 | 38.05468 | -77.30824 | 15994 ft | 410 kts | 22° |
| 2026-05-06 00:57 | 38.08118 | -77.29543 | 15451 ft | 404 kts | 12° |
| 2026-05-06 00:58 | 38.10838 | -77.28688 | 14914 ft | 401 kts | 10° |
| 2026-05-06 00:58 | 38.13542 | -77.27843 | 14373 ft | 399 kts | 10° |
| 2026-05-06 00:58 | 38.16227 | -77.26994 | 13839 ft | 397 kts | 10° |
| 2026-05-06 00:58 | 38.18895 | -77.26149 | 13259 ft | 394 kts | 10° |
| 2026-05-06 00:59 | 38.21535 | -77.25290 | 12794 ft | 389 kts | 11° |
| 2026-05-06 00:59 | 38.24108 | -77.24366 | 12468 ft | 381 kts | 12° |
| 2026-05-06 00:59 | 38.26636 | -77.23404 | 12118 ft | 378 kts | 13° |
| 2026-05-06 00:59 | 38.29144 | -77.22417 | 11754 ft | 376 kts | 13° |
| 2026-05-06 01:00 | 38.31641 | -77.21431 | 11416 ft | 375 kts | 13° |
| 2026-05-06 01:00 | 38.34116 | -77.20471 | 11149 ft | 366 kts | 13° |
| 2026-05-06 01:00 | 38.36511 | -77.19549 | 10921 ft | 355 kts | 13° |
| 2026-05-06 01:00 | 38.38855 | -77.18650 | 10641 ft | 350 kts | 13° |
| 2026-05-06 01:01 | 38.41181 | -77.17760 | 10405 ft | 348 kts | 13° |
| 2026-05-06 01:01 | 38.43476 | -77.16879 | 10176 ft | 348 kts | 13° |
| 2026-05-06 01:01 | 38.45780 | -77.15993 | 9968 ft | 342 kts | 13° |
| 2026-05-06 01:01 | 38.48001 | -77.15125 | 10002 ft | 324 kts | 13° |
| 2026-05-06 01:02 | 38.50115 | -77.14304 | 10041 ft | 315 kts | 12° |
| 2026-05-06 01:02 | 38.52209 | -77.13498 | 10042 ft | 313 kts | 12° |
| 2026-05-06 01:02 | 38.54289 | -77.12693 | 10042 ft | 312 kts | 12° |
| 2026-05-06 01:02 | 38.56368 | -77.11884 | 10041 ft | 313 kts | 12° |
| 2026-05-06 01:03 | 38.58450 | -77.11075 | 9979 ft | 314 kts | 12° |
| 2026-05-06 01:03 | 38.60552 | -77.10266 | 9577 ft | 314 kts | 12° |
| 2026-05-06 01:03 | 38.62639 | -77.09466 | 9245 ft | 312 kts | 12° |
| 2026-05-06 01:03 | 38.64703 | -77.08674 | 8938 ft | 310 kts | 13° |
| 2026-05-06 01:04 | 38.66774 | -77.07876 | 8620 ft | 309 kts | 13° |
| 2026-05-06 01:04 | 38.68844 | -77.07155 | 8283 ft | 307 kts | 6° |
| 2026-05-06 01:04 | 38.70955 | -77.06894 | 7970 ft | 304 kts | 359° |
| 2026-05-06 01:04 | 38.73059 | -77.06697 | 7654 ft | 304 kts | 359° |
| 2026-05-06 01:05 | 38.75165 | -77.06616 | 7342 ft | 300 kts | 350° |
| 2026-05-06 01:05 | 38.77174 | -77.07142 | 7057 ft | 292 kts | 334° |
| 2026-05-06 01:05 | 38.78969 | -77.08261 | 6764 ft | 284 kts | 320° |
| 2026-05-06 01:05 | 38.80632 | -77.09631 | 6472 ft | 283 kts | 320° |
| 2026-05-06 01:06 | 38.82284 | -77.10998 | 6134 ft | 283 kts | 319° |
| 2026-05-06 01:06 | 38.83821 | -77.12501 | 5639 ft | 272 kts | 308° |
| 2026-05-06 01:06 | 38.85177 | -77.14182 | 5058 ft | 271 kts | 308° |
| 2026-05-06 01:06 | 38.86530 | -77.15873 | 4615 ft | 272 kts | 308° |
| 2026-05-06 01:07 | 38.87881 | -77.17561 | 4257 ft | 270 kts | 308° |
| 2026-05-06 01:07 | 38.89205 | -77.19211 | 3898 ft | 267 kts | 308° |
| 2026-05-06 01:07 | 38.90555 | -77.20896 | 3461 ft | 268 kts | 307° |
| 2026-05-06 01:07 | 38.91865 | -77.22529 | 3183 ft | 262 kts | 307° |
| 2026-05-06 01:08 | 38.93166 | -77.24088 | 3072 ft | 253 kts | 313° |
| 2026-05-06 01:08 | 38.94791 | -77.24972 | 3001 ft | 257 kts | 347° |
| 2026-05-06 01:08 | 38.96535 | -77.24685 | 3010 ft | 256 kts | 21° |
| 2026-05-06 01:08 | 38.97962 | -77.23375 | 3025 ft | 251 kts | 46° |
| 2026-05-06 01:09 | 38.98868 | -77.21524 | 3031 ft | 243 kts | 74° |
| 2026-05-06 01:09 | 38.99207 | -77.19470 | 3007 ft | 224 kts | 102° |
| 2026-05-06 01:09 | 38.98792 | -77.17680 | 2844 ft | 198 kts | 133° |
| 2026-05-06 01:09 | 38.97890 | -77.16498 | 2765 ft | 178 kts | 157° |
| 2026-05-06 01:10 | 38.96860 | -77.15629 | 2723 ft | 177 kts | 157° |
| 2026-05-06 01:10 | 38.95881 | -77.14635 | 2661 ft | 181 kts | 149° |
| 2026-05-06 01:10 | 38.94947 | -77.13587 | 2473 ft | 174 kts | 149° |
| 2026-05-06 01:10 | 38.94102 | -77.12629 | 2268 ft | 150 kts | 150° |
| 2026-05-06 01:11 | 38.93341 | -77.11790 | 2097 ft | 138 kts | 155° |
| 2026-05-06 01:11 | 38.92554 | -77.11149 | 1925 ft | 132 kts | 161° |
| 2026-05-06 01:11 | 38.91788 | -77.10524 | 1745 ft | 129 kts | 161° |
| 2026-05-06 01:11 | 38.91070 | -77.09807 | 1575 ft | 138 kts | 145° |
| 2026-05-06 01:12 | 38.90604 | -77.08671 | 1390 ft | 151 kts | 118° |
| 2026-05-06 01:12 | 38.90292 | -77.07370 | 1216 ft | 150 kts | 126° |
| 2026-05-06 01:12 | 38.89637 | -77.06376 | 948 ft | 144 kts | 150° |
| 2026-05-06 01:12 | 38.88843 | -77.05617 | 788 ft | 140 kts | 146° |
| 2026-05-06 01:13 | 38.88150 | -77.04792 | 531 ft | 134 kts | 138° |
| 2026-05-06 01:13 | 38.87396 | -77.04111 | 297 ft | 133 kts | 164° |
| 2026-05-06 01:13 | 38.86488 | -77.03911 | 119 ft | 130 kts | 178° |
| 2026-05-06 01:13 | 38.85610 | -77.03825 | 27 ft | 117 kts | 175° |
| 2026-05-06 01:14 | 38.84877 | -77.03882 | 24 ft | 2 kts | 270° |
| 2026-05-06 01:14 | 38.84877 | -77.03883 | 24 ft | 0 kts | 270° |
| 2026-05-06 01:14 | 38.84877 | -77.03894 | 24 ft | 2 kts | 271° |
| 2026-05-06 01:15 | 38.84886 | -77.03902 | 26 ft | 1 kts | 351° |
| 2026-05-06 01:15 | 38.84946 | -77.03896 | 24 ft | 17 kts | 359° |
| 2026-05-06 01:15 | 38.85107 | -77.03911 | 24 ft | 29 kts | 355° |
| 2026-05-06 01:15 | 38.85326 | -77.03932 | 24 ft | 32 kts | 356° |
| 2026-05-06 01:16 | 38.85543 | -77.03972 | 24 ft | 27 kts | 319° |
| 2026-05-06 01:16 | 38.85628 | -77.04076 | 24 ft | 25 kts | 330° |
| 2026-05-06 01:16 | 38.85677 | -77.04160 | 24 ft | 6 kts | 226° |
| 2026-05-06 01:16 | 38.85664 | -77.04179 | 26 ft | 0 kts | 231° |